Time;durP1;ratioP1;P1;durP2;ratioP2;P2;SDS_P1;SDS_P2;PMS_P1;PMS_P2;Temp;Humidity;BMP_temperature;BMP_pressure;BME280_temperature;BME280_humidity;BME280_pressure;Samples;Min_cycle;Max_cycle;Signal;HPM_P1;HPM_P2
2021/03/07 00:00:47;;;;;;;20.63;17.10;;;-3.00;99.90;;;;;;4988150;28;20076;-74
2021/03/07 00:03:14;;;;;;;20.80;17.35;;;-3.10;99.90;;;;;;4987349;28;20205;-74
2021/03/07 00:05:40;;;;;;;23.85;18.08;;;-3.10;99.90;;;;;;4971405;28;20145;-74
2021/03/07 00:08:06;;;;;;;18.73;16.73;;;-3.10;99.90;;;;;;4971314;28;20046;-74
2021/03/07 00:10:33;;;;;;;21.35;17.27;;;-3.00;99.90;;;;;;4999218;28;20038;-74
2021/03/07 00:12:59;;;;;;;21.42;16.77;;;-3.00;99.90;;;;;;4968015;28;20085;-74
2021/03/07 00:15:25;;;;;;;21.92;17.27;;;-2.90;99.90;;;;;;4951793;28;20086;-74
2021/03/07 00:17:52;;;;;;;22.02;16.38;;;-3.00;99.90;;;;;;4967182;28;20051;-74
2021/03/07 00:20:21;;;;;;;20.05;16.55;;;-3.00;99.90;;;;;;4965738;28;20046;-74
2021/03/07 00:22:47;;;;;;;20.98;16.92;;;-2.90;99.90;;;;;;4967544;28;20708;-73
2021/03/07 00:25:16;;;;;;;21.83;16.65;;;-2.90;99.90;;;;;;4967499;28;20068;-73
2021/03/07 00:27:42;;;;;;;21.92;16.63;;;-2.80;99.90;;;;;;4968131;28;20054;-74
2021/03/07 00:30:12;;;;;;;23.90;18.40;;;-2.70;99.90;;;;;;4967118;28;20078;-74
2021/03/07 00:32:39;;;;;;;20.75;16.52;;;-2.90;99.90;;;;;;4983022;28;20663;-74
2021/03/07 00:35:07;;;;;;;20.67;17.20;;;-3.10;99.90;;;;;;4981160;28;20054;-76
2021/03/07 00:37:33;;;;;;;22.15;17.15;;;-3.20;99.90;;;;;;4944499;28;20656;-75
2021/03/07 00:40:00;;;;;;;23.65;17.30;;;-3.20;99.90;;;;;;4953781;28;20061;-75
2021/03/07 00:42:26;;;;;;;21.83;17.65;;;-3.30;99.90;;;;;;4960844;28;20599;-73
2021/03/07 00:44:52;;;;;;;19.50;17.40;;;-3.30;99.90;;;;;;4983204;28;20046;-73
2021/03/07 00:47:19;;;;;;;20.42;18.13;;;-3.40;99.90;;;;;;4983816;28;20050;-73
2021/03/07 00:49:46;;;;;;;19.65;17.48;;;-3.40;99.90;;;;;;4970892;28;20051;-73
2021/03/07 00:52:12;;;;;;;19.50;17.40;;;-3.50;99.90;;;;;;5002078;28;20158;-73
2021/03/07 00:54:38;;;;;;;20.58;18.13;;;-3.40;99.90;;;;;;4987801;28;20502;-74
2021/03/07 00:57:05;;;;;;;22.02;17.27;;;-3.50;99.90;;;;;;4985977;28;20458;-74
2021/03/07 00:59:31;;;;;;;22.13;17.80;;;-3.60;99.90;;;;;;5003014;28;20050;-74
2021/03/07 01:01:57;;;;;;;22.42;17.40;;;-3.60;99.90;;;;;;5018663;28;20255;-74
2021/03/07 01:04:24;;;;;;;20.77;18.20;;;-3.60;99.90;;;;;;4999558;28;20145;-74
2021/03/07 01:06:50;;;;;;;20.00;17.95;;;-3.60;99.90;;;;;;4982420;28;20043;-74
2021/03/07 01:09:17;;;;;;;23.17;19.10;;;-3.70;99.90;;;;;;4950508;28;20043;-74
2021/03/07 01:11:59;;;;;;;25.77;17.88;;;-3.70;99.90;;;;;;4976616;28;20053;-74
2021/03/07 01:14:25;;;;;;;23.25;18.27;;;-3.50;99.90;;;;;;4950642;28;20400;-75
2021/03/07 01:16:52;;;;;;;23.15;18.33;;;-3.40;99.90;;;;;;4966955;28;20427;-75
2021/03/07 01:19:18;;;;;;;24.73;19.25;;;-3.40;99.90;;;;;;4948349;28;20078;-74
2021/03/07 01:21:44;;;;;;;25.45;19.52;;;-3.50;99.90;;;;;;4982026;28;20054;-74
2021/03/07 01:24:11;;;;;;;24.35;18.38;;;-3.40;99.90;;;;;;4950929;28;20062;-75
2021/03/07 01:26:37;;;;;;;31.70;19.08;;;-3.50;99.90;;;;;;4967365;28;20054;-75
2021/03/07 01:29:03;;;;;;;23.60;18.05;;;-3.30;99.90;;;;;;4950301;28;20047;-74
2021/03/07 01:31:30;;;;;;;30.30;18.63;;;-3.20;99.90;;;;;;4949842;28;20153;-74
2021/03/07 01:33:56;;;;;;;29.20;19.35;;;-3.20;99.90;;;;;;4966688;28;20139;-75
2021/03/07 01:36:22;;;;;;;31.15;20.05;;;-3.20;99.90;;;;;;4965389;28;20047;-75
2021/03/07 01:38:49;;;;;;;29.30;20.63;;;-3.30;99.90;;;;;;4949947;28;20051;-74
2021/03/07 01:41:15;;;;;;;26.55;19.95;;;-3.30;99.90;;;;;;4965641;28;20054;-74
2021/03/07 01:43:41;;;;;;;25.50;19.55;;;-3.20;99.90;;;;;;4950371;28;20536;-74
2021/03/07 01:46:08;;;;;;;26.25;19.25;;;-3.40;99.90;;;;;;4981683;28;20786;-74
2021/03/07 01:48:35;;;;;;;23.60;18.05;;;-3.50;99.90;;;;;;4966873;28;20153;-74
2021/03/07 01:51:02;;;;;;;28.90;21.00;;;-3.60;99.90;;;;;;4965132;28;20127;-75
2021/03/07 01:53:28;;;;;;;30.67;21.08;;;-3.60;99.90;;;;;;4948328;28;20053;-74
2021/03/07 01:55:56;;;;;;;25.92;21.00;;;-3.70;99.90;;;;;;4949570;28;20407;-75
2021/03/07 01:58:27;;;;;;;28.33;20.33;;;-3.70;99.90;;;;;;4982361;28;20667;-75
2021/03/07 02:00:55;;;;;;;25.73;20.73;;;-3.60;99.90;;;;;;4965432;28;20057;-74
2021/03/07 02:03:22;;;;;;;29.92;21.08;;;-3.50;99.90;;;;;;4950772;28;20129;-75
2021/03/07 02:05:49;;;;;;;29.27;21.38;;;-3.40;99.90;;;;;;4970642;28;20053;-75
2021/03/07 02:08:19;;;;;;;25.67;20.83;;;-3.40;99.90;;;;;;4964965;28;20047;-74
2021/03/07 02:10:51;;;;;;;27.35;21.67;;;-3.40;99.90;;;;;;4980776;28;20488;-74
2021/03/07 02:13:22;;;;;;;28.92;21.33;;;-3.50;99.90;;;;;;4965119;28;20051;-75
2021/03/07 02:15:53;;;;;;;29.15;21.90;;;-3.70;99.90;;;;;;4963961;28;20427;-74
2021/03/07 02:18:20;;;;;;;28.70;21.75;;;-3.80;99.90;;;;;;4960289;28;20421;-74
2021/03/07 02:20:51;;;;;;;31.38;22.08;;;-3.90;99.90;;;;;;4951144;28;20047;-74
2021/03/07 02:23:30;;;;;;;30.88;21.80;;;-4.00;99.90;;;;;;4977742;28;20082;-75
2021/03/07 02:25:56;;;;;;;28.35;22.15;;;-3.90;99.90;;;;;;4992054;28;20295;-75
2021/03/07 02:28:25;;;;;;;24.25;20.92;;;-4.00;99.90;;;;;;4965496;28;20754;-75
2021/03/07 02:30:52;;;;;;;29.92;22.60;;;-4.10;99.90;;;;;;4980848;28;20050;-75
2021/03/07 02:33:29;;;;;;;31.85;22.15;;;-4.10;99.90;;;;;;4997722;28;20054;-75
2021/03/07 02:36:01;;;;;;;31.23;22.63;;;-4.00;99.90;;;;;;4975776;28;20130;-75
2021/03/07 02:38:31;;;;;;;27.33;21.58;;;-4.00;99.90;;;;;;4985231;28;20061;-75
2021/03/07 02:40:59;;;;;;;34.03;24.17;;;-4.10;99.90;;;;;;4993173;28;20054;-75
2021/03/07 02:43:27;;;;;;;30.67;22.63;;;-3.80;99.90;;;;;;4964990;28;20047;-75
2021/03/07 02:45:57;;;;;;;34.67;23.13;;;-3.70;99.90;;;;;;4981121;28;20050;-75
2021/03/07 02:48:26;;;;;;;34.70;25.27;;;-3.90;99.90;;;;;;4949694;28;20055;-75
2021/03/07 02:50:57;;;;;;;35.35;24.30;;;-4.00;99.90;;;;;;4986294;28;20054;-75
2021/03/07 02:53:26;;;;;;;37.00;25.20;;;-4.10;99.90;;;;;;4964661;28;20147;-75
2021/03/07 02:56:01;;;;;;;30.13;23.75;;;-4.20;99.90;;;;;;4952211;28;20050;-75
2021/03/07 02:58:29;;;;;;;38.88;25.58;;;-4.30;99.90;;;;;;4948492;28;20038;-75
2021/03/07 03:00:59;;;;;;;39.22;26.67;;;-4.20;99.90;;;;;;4952267;28;20051;-75
2021/03/07 03:03:32;;;;;;;38.80;27.52;;;-4.10;99.90;;;;;;4965348;28;20133;-74
2021/03/07 03:05:59;;;;;;;42.60;27.58;;;-4.00;99.90;;;;;;4965219;28;20110;-74
2021/03/07 03:08:27;;;;;;;38.40;27.50;;;-4.00;99.90;;;;;;4965335;28;20051;-75
2021/03/07 03:10:54;;;;;;;38.50;25.58;;;-4.00;99.90;;;;;;4964821;28;20511;-75
2021/03/07 03:13:33;;;;;;;40.58;26.50;;;-4.10;99.90;;;;;;4963330;28;20078;-75
2021/03/07 03:16:02;;;;;;;33.58;24.60;;;-4.20;99.90;;;;;;4965118;28;20633;-75
2021/03/07 03:18:30;;;;;;;33.55;24.50;;;-4.30;99.90;;;;;;4966790;28;20050;-75
2021/03/07 03:21:04;;;;;;;33.80;25.90;;;-4.30;99.90;;;;;;4964736;28;20039;-75
2021/03/07 03:23:31;;;;;;;30.80;26.33;;;-4.30;99.90;;;;;;4964702;28;20146;-75
2021/03/07 03:25:59;;;;;;;37.25;26.70;;;-4.30;99.90;;;;;;4964513;28;20070;-75
2021/03/07 03:28:25;;;;;;;36.63;26.27;;;-4.40;99.90;;;;;;4966477;28;20046;-75
2021/03/07 03:30:53;;;;;;;41.03;27.77;;;-4.50;99.90;;;;;;4966659;28;20042;-75
2021/03/07 03:33:23;;;;;;;41.05;27.25;;;-4.50;99.90;;;;;;4952343;28;20418;-75
2021/03/07 03:35:50;;;;;;;34.85;26.02;;;-4.50;99.90;;;;;;4967815;28;20047;-75
2021/03/07 03:38:18;;;;;;;34.42;26.38;;;-4.50;99.90;;;;;;4968312;28;20460;-74
2021/03/07 03:40:51;;;;;;;35.00;26.08;;;-4.50;99.90;;;;;;4950894;28;20057;-75
2021/03/07 03:43:21;;;;;;;34.25;25.15;;;-4.50;99.90;;;;;;4992892;28;20055;-75
2021/03/07 03:45:50;;;;;;;38.60;26.92;;;-4.50;99.90;;;;;;4938969;28;20660;-75
2021/03/07 03:48:22;;;;;;;35.85;26.48;;;-4.40;99.90;;;;;;4968745;28;20050;-75
2021/03/07 03:50:49;;;;;;;42.45;27.05;;;-4.30;99.90;;;;;;4969944;28;20105;-75
2021/03/07 03:53:18;;;;;;;42.72;28.40;;;-4.20;99.90;;;;;;4983455;28;20059;-74
2021/03/07 03:55:47;;;;;;;40.67;26.70;;;-4.00;99.90;;;;;;4962703;28;20048;-75
2021/03/07 03:58:16;;;;;;;44.90;28.58;;;-4.00;99.90;;;;;;4951180;29;20451;-75
2021/03/07 04:00:43;;;;;;;41.90;27.63;;;-4.20;99.90;;;;;;4978485;28;20057;-74
2021/03/07 04:03:13;;;;;;;40.05;26.48;;;-4.40;99.90;;;;;;5001693;28;20043;-75
2021/03/07 04:05:45;;;;;;;43.63;29.17;;;-4.30;99.90;;;;;;4987200;28;20050;-75
2021/03/07 04:08:13;;;;;;;44.72;27.52;;;-4.20;99.90;;;;;;4984043;28;20066;-75
2021/03/07 04:10:42;;;;;;;41.13;27.65;;;-4.20;99.90;;;;;;4998031;28;20054;-75
2021/03/07 04:13:10;;;;;;;41.63;29.38;;;-4.40;99.90;;;;;;4951898;28;20051;-75
2021/03/07 04:15:38;;;;;;;48.95;28.90;;;-4.30;99.90;;;;;;4935921;28;20074;-74
2021/03/07 04:18:07;;;;;;;51.47;29.30;;;-4.00;99.90;;;;;;4984113;28;20063;-75
2021/03/07 04:20:34;;;;;;;44.10;28.13;;;-4.10;99.90;;;;;;4988239;28;20515;-76
2021/03/07 04:23:00;;;;;;;46.10;28.63;;;-4.20;99.90;;;;;;4987123;28;20125;-75
2021/03/07 04:25:27;;;;;;;40.88;26.95;;;-4.20;99.90;;;;;;5017006;28;20054;-75
2021/03/07 04:27:53;;;;;;;40.45;26.52;;;-4.30;99.90;;;;;;4951551;28;20062;-75
2021/03/07 04:30:21;;;;;;;37.33;26.40;;;-4.30;99.90;;;;;;4950794;28;20141;-75
2021/03/07 04:32:48;;;;;;;35.95;26.40;;;-4.50;99.90;;;;;;4939910;28;20050;-75
2021/03/07 04:35:16;;;;;;;43.30;27.83;;;-4.60;99.90;;;;;;4965251;28;20602;-75
2021/03/07 04:37:43;;;;;;;42.38;26.92;;;-4.40;99.90;;;;;;4955421;28;20035;-75
2021/03/07 04:40:09;;;;;;;39.92;27.45;;;-4.50;99.90;;;;;;4967396;28;20061;-75
2021/03/07 04:42:39;;;;;;;39.72;26.52;;;-4.30;99.90;;;;;;4950348;28;20046;-74
2021/03/07 04:45:06;;;;;;;43.72;27.38;;;-4.30;99.90;;;;;;4967361;28;20054;-74
2021/03/07 04:47:32;;;;;;;49.28;27.88;;;-4.30;99.90;;;;;;4967851;28;20043;-76
2021/03/07 04:49:59;;;;;;;43.65;26.13;;;-4.40;99.90;;;;;;4959416;28;20062;-75
2021/03/07 04:52:25;;;;;;;39.63;26.50;;;-4.30;99.90;;;;;;4967079;28;20046;-73
2021/03/07 04:54:51;;;;;;;50.15;28.83;;;-4.30;99.90;;;;;;4967026;28;20059;-75
2021/03/07 04:57:17;;;;;;;46.05;26.40;;;-4.30;99.90;;;;;;4983249;28;20134;-74
2021/03/07 04:59:44;;;;;;;45.85;26.75;;;-4.10;99.90;;;;;;5000676;28;20162;-74
2021/03/07 05:02:10;;;;;;;45.40;28.25;;;-4.10;99.90;;;;;;4950847;28;20046;-76
2021/03/07 05:04:36;;;;;;;37.85;25.30;;;-4.20;99.90;;;;;;4949333;28;20043;-73
2021/03/07 05:07:03;;;;;;;39.33;27.10;;;-4.20;99.90;;;;;;4950636;28;20051;-75
2021/03/07 05:09:29;;;;;;;36.35;26.00;;;-4.30;99.90;;;;;;4983703;28;20508;-75
2021/03/07 05:11:56;;;;;;;36.03;26.58;;;-4.50;99.90;;;;;;4964480;28;20436;-75
2021/03/07 05:14:22;;;;;;;40.25;28.05;;;-4.50;99.90;;;;;;4967157;28;20062;-75
2021/03/07 05:16:48;;;;;;;43.65;28.95;;;-4.50;99.90;;;;;;4980170;28;20050;-75
2021/03/07 05:19:15;;;;;;;44.17;29.38;;;-4.60;99.90;;;;;;4965326;28;20043;-75
2021/03/07 05:21:41;;;;;;;48.28;29.98;;;-4.70;99.90;;;;;;4981511;28;20051;-75
2021/03/07 05:24:08;;;;;;;44.88;29.33;;;-4.70;99.90;;;;;;4949963;28;20057;-75
2021/03/07 05:26:34;;;;;;;45.15;30.38;;;-4.70;99.90;;;;;;4965915;28;20247;-75
2021/03/07 05:29:00;;;;;;;39.15;27.35;;;-4.70;99.90;;;;;;4966210;28;20080;-75
2021/03/07 05:31:26;;;;;;;49.63;30.27;;;-4.70;99.90;;;;;;4963872;28;20050;-75
2021/03/07 05:33:53;;;;;;;47.03;28.02;;;-4.60;99.90;;;;;;4949651;28;20058;-75
2021/03/07 05:36:19;;;;;;;42.13;27.83;;;-4.50;99.90;;;;;;4948240;28;20051;-75
2021/03/07 05:38:45;;;;;;;50.60;29.42;;;-4.40;99.90;;;;;;4949110;28;20062;-75
2021/03/07 05:41:13;;;;;;;39.33;28.05;;;-4.30;99.90;;;;;;4964903;28;20051;-75
2021/03/07 05:43:40;;;;;;;44.35;27.73;;;-4.10;99.90;;;;;;4965459;28;20569;-75
2021/03/07 05:46:10;;;;;;;41.85;29.92;;;-4.10;99.90;;;;;;4964983;28;20049;-75
2021/03/07 05:48:36;;;;;;;40.22;27.27;;;-4.00;99.90;;;;;;4981489;28;20050;-75
2021/03/07 05:51:03;;;;;;;41.90;26.65;;;-3.90;99.90;;;;;;4965067;28;20404;-75
2021/03/07 05:53:31;;;;;;;44.60;26.73;;;-4.00;99.90;;;;;;4966119;28;20053;-75
2021/03/07 05:55:58;;;;;;;38.05;26.45;;;-4.00;99.90;;;;;;4985055;28;20065;-75
2021/03/07 05:58:26;;;;;;;38.45;26.70;;;-3.90;99.90;;;;;;4965416;28;20069;-75
2021/03/07 06:00:53;;;;;;;49.92;29.10;;;-4.00;99.90;;;;;;4987291;28;20141;-74
2021/03/07 06:03:22;;;;;;;37.30;26.70;;;-4.00;99.90;;;;;;4987909;28;20046;-74
2021/03/07 06:05:51;;;;;;;41.03;28.00;;;-4.10;99.90;;;;;;4990252;28;20054;-74
2021/03/07 06:08:19;;;;;;;37.90;27.08;;;-4.00;99.90;;;;;;4968661;28;20054;-75
2021/03/07 06:10:46;;;;;;;37.03;27.67;;;-3.90;99.90;;;;;;4991489;28;20053;-74
2021/03/07 06:13:12;;;;;;;43.75;27.27;;;-3.90;99.90;;;;;;4993777;28;20067;-74
2021/03/07 06:16:06;;;;;;;43.65;28.27;;;-3.90;99.90;;;;;;4955377;28;20125;-74
2021/03/07 06:18:40;;;;;;;42.38;29.75;;;-3.90;99.90;;;;;;4972792;28;20043;-74
2021/03/07 06:21:31;;;;;;;41.85;30.02;;;-3.80;99.90;;;;;;4969441;28;20130;-75
2021/03/07 06:23:59;;;;;;;43.70;29.58;;;-3.70;99.90;;;;;;4980524;28;20047;-74
2021/03/07 06:26:26;;;;;;;42.90;29.20;;;-3.80;99.90;;;;;;4980805;28;20057;-75
2021/03/07 06:29:14;;;;;;;43.90;29.98;;;-3.80;99.90;;;;;;4984402;28;20214;-74
2021/03/07 06:31:43;;;;;;;43.08;29.85;;;-3.80;99.90;;;;;;4967362;28;20046;-75
2021/03/07 06:34:09;;;;;;;43.70;28.95;;;-3.80;99.90;;;;;;5000778;28;20684;-74
2021/03/07 06:36:37;;;;;;;42.22;29.13;;;-3.70;99.90;;;;;;4983425;28;20057;-74
2021/03/07 06:39:06;;;;;;;40.92;28.23;;;-3.50;99.90;;;;;;5003435;28;20112;-75
2021/03/07 06:41:34;;;;;;;38.50;27.98;;;-3.10;99.90;;;;;;5016032;28;20133;-74
2021/03/07 06:44:15;;;;;;;45.15;28.23;;;-3.10;99.90;;;;;;4983789;28;20042;-74
2021/03/07 06:46:44;;;;;;;40.92;27.15;;;-3.00;99.90;;;;;;4983385;28;20065;-74
2021/03/07 06:49:25;;;;;;;40.45;29.13;;;-2.90;99.90;;;;;;4979065;28;20128;-74
2021/03/07 06:51:51;;;;;;;42.10;27.38;;;-2.80;99.90;;;;;;4982992;28;20046;-74
2021/03/07 06:54:20;;;;;;;38.25;27.58;;;-2.80;99.90;;;;;;4963588;28;20459;-74
2021/03/07 06:56:49;;;;;;;42.67;27.77;;;-2.60;99.90;;;;;;4980913;28;20226;-75
2021/03/07 06:59:23;;;;;;;43.30;28.30;;;-2.60;99.90;;;;;;4950888;28;20069;-74
2021/03/07 07:01:52;;;;;;;39.60;26.60;;;-2.70;99.90;;;;;;4961485;28;20116;-74
2021/03/07 07:04:19;;;;;;;44.97;28.58;;;-2.50;99.90;;;;;;4994619;28;20046;-74
2021/03/07 07:07:01;;;;;;;38.35;27.88;;;-2.40;99.90;;;;;;4981674;28;20044;-74
2021/03/07 07:09:28;;;;;;;45.72;27.88;;;-2.30;99.90;;;;;;4997626;28;20050;-75
2021/03/07 07:11:54;;;;;;;42.03;26.60;;;-2.20;99.90;;;;;;4987157;28;20396;-76
2021/03/07 07:14:40;;;;;;;41.13;26.85;;;-2.20;99.90;;;;;;4970121;28;20074;-74
2021/03/07 07:17:18;;;;;;;35.28;25.08;;;-2.10;99.90;;;;;;4985944;28;20477;-75
2021/03/07 07:19:47;;;;;;;41.92;26.73;;;-2.00;99.90;;;;;;4987406;28;20141;-74
2021/03/07 07:22:16;;;;;;;51.45;32.15;;;-2.00;99.90;;;;;;4966895;28;20058;-75
2021/03/07 07:24:43;;;;;;;44.40;30.15;;;-1.90;99.90;;;;;;4975819;28;20630;-76
2021/03/07 07:27:10;;;;;;;52.65;34.17;;;-1.90;99.90;;;;;;4974654;28;20443;-75
2021/03/07 07:29:38;;;;;;;54.47;34.50;;;-1.80;99.90;;;;;;4981683;28;20046;-75
2021/03/07 07:32:19;;;;;;;67.43;37.58;;;-1.60;99.90;;;;;;4986079;28;20050;-74
2021/03/07 07:34:52;;;;;;;49.75;31.17;;;-1.40;99.90;;;;;;4979588;28;20624;-75
2021/03/07 07:37:26;;;;;;;45.00;29.50;;;-1.20;99.90;;;;;;4962391;28;20057;-74
2021/03/07 07:39:55;;;;;;;46.40;31.53;;;-1.30;99.90;;;;;;4986605;28;20047;-75
2021/03/07 07:42:26;;;;;;;58.50;39.97;;;-1.20;99.90;;;;;;4995848;28;20506;-74
2021/03/07 07:45:18;;;;;;;63.88;36.45;;;-1.20;99.90;;;;;;4966297;28;20059;-74
2021/03/07 07:47:46;;;;;;;60.60;39.30;;;-1.30;99.90;;;;;;4993869;28;20043;-74
2021/03/07 07:50:31;;;;;;;60.42;37.63;;;-1.20;99.90;;;;;;5003052;28;20089;-75
2021/03/07 07:53:21;;;;;;;52.55;34.67;;;-1.10;99.90;;;;;;4988128;28;20141;-75
2021/03/07 07:55:53;;;;;;;53.03;32.88;;;-1.10;99.90;;;;;;4968172;28;20081;-75
2021/03/07 07:58:36;;;;;;;52.72;35.42;;;-0.90;99.90;;;;;;4988219;28;20050;-74
2021/03/07 08:01:04;;;;;;;49.58;32.58;;;-0.80;99.90;;;;;;4987541;28;20092;-75
2021/03/07 08:03:39;;;;;;;43.95;29.63;;;-0.70;99.90;;;;;;5003093;28;20516;-75
2021/03/07 08:06:40;;;;;;;41.75;29.20;;;-0.70;99.90;;;;;;4999341;28;20043;-75
2021/03/07 08:09:40;;;;;;;37.58;27.95;;;-0.50;99.90;;;;;;4962010;28;20074;-75
2021/03/07 08:12:44;;;;;;;41.42;27.45;;;-0.30;99.90;;;;;;4983712;28;21050;-75
2021/03/07 08:15:26;;;;;;;41.30;27.38;;;-0.20;99.90;;;;;;4987356;28;20042;-75
2021/03/07 08:17:54;;;;;;;37.78;27.27;;;0.20;99.90;;;;;;4964767;28;20530;-74
2021/03/07 08:20:40;;;;;;;27.58;24.08;;;0.50;99.90;;;;;;5002986;28;20243;-75
2021/03/07 08:23:13;;;;;;;26.05;23.35;;;0.90;99.90;;;;;;4987362;28;20050;-75
2021/03/07 08:25:48;;;;;;;31.63;25.40;;;1.20;99.90;;;;;;4981670;28;20772;-76
2021/03/07 08:28:30;;;;;;;35.45;26.80;;;1.60;99.90;;;;;;4966671;28;20758;-76
2021/03/07 08:31:02;;;;;;;27.42;25.02;;;1.90;99.90;;;;;;4955561;28;20047;-74
2021/03/07 08:33:36;;;;;;;28.13;25.52;;;2.30;99.90;;;;;;4968963;28;20073;-74
2021/03/07 08:36:21;;;;;;;30.90;27.73;;;2.50;99.90;;;;;;4953066;28;20058;-75
2021/03/07 08:38:53;;;;;;;28.80;25.65;;;2.60;99.90;;;;;;4966422;28;20081;-75
2021/03/07 08:41:22;;;;;;;27.05;24.27;;;2.80;99.90;;;;;;4957622;28;20712;-74
2021/03/07 08:43:55;;;;;;;34.40;26.90;;;2.90;99.90;;;;;;4950645;28;20550;-74
2021/03/07 08:46:45;;;;;;;28.55;25.65;;;3.00;99.90;;;;;;4963494;28;20396;-75
2021/03/07 08:49:13;;;;;;;27.77;24.75;;;3.10;99.90;;;;;;4965468;28;20062;-73
2021/03/07 08:51:45;;;;;;;29.20;26.15;;;3.10;99.90;;;;;;4981104;28;20508;-74
2021/03/07 08:54:20;;;;;;;30.88;27.75;;;3.20;99.90;;;;;;4982172;28;20544;-74
2021/03/07 08:56:48;;;;;;;27.83;25.25;;;3.20;99.90;;;;;;4957980;28;20508;-74
2021/03/07 08:59:15;;;;;;;29.95;27.15;;;3.00;99.90;;;;;;4948188;28;20606;-75
2021/03/07 09:01:42;;;;;;;27.52;24.85;;;3.00;99.90;;;;;;4982368;28;20058;-74
2021/03/07 09:04:10;;;;;;;27.25;24.48;;;3.10;99.90;;;;;;4966660;28;20097;-74
2021/03/07 09:06:45;;;;;;;26.88;24.17;;;3.30;99.90;;;;;;4980932;28;20042;-74
2021/03/07 09:09:15;;;;;;;24.77;21.75;;;3.30;99.90;;;;;;4981831;28;20051;-74
2021/03/07 09:11:51;;;;;;;23.02;20.98;;;3.30;99.90;;;;;;4966716;28;20411;-75
2021/03/07 09:14:26;;;;;;;22.67;20.75;;;3.20;99.90;;;;;;4966296;28;20078;-74
2021/03/07 09:16:52;;;;;;;23.88;21.67;;;3.10;99.90;;;;;;4977485;28;20051;-75
2021/03/07 09:19:29;;;;;;;24.17;21.92;;;3.20;99.90;;;;;;4965885;28;20475;-74
2021/03/07 09:22:09;;;;;;;25.30;22.67;;;3.20;99.90;;;;;;4979358;28;20275;-74
2021/03/07 09:24:36;;;;;;;24.40;21.88;;;3.20;99.90;;;;;;4985153;28;20054;-75
2021/03/07 09:27:12;;;;;;;22.25;20.00;;;3.30;99.90;;;;;;4975034;28;20051;-74
2021/03/07 09:29:58;;;;;;;22.77;19.75;;;3.30;99.90;;;;;;4981116;28;20589;-74
2021/03/07 09:32:27;;;;;;;22.65;20.25;;;3.20;99.90;;;;;;4981832;28;20133;-74
2021/03/07 09:34:55;;;;;;;24.33;19.35;;;3.20;99.90;;;;;;4946467;28;20134;-73
2021/03/07 09:37:23;;;;;;;16.23;14.73;;;3.30;99.90;;;;;;4966074;28;20050;-75
2021/03/07 09:39:50;;;;;;;15.85;14.40;;;3.10;99.90;;;;;;4980990;28;20393;-73
2021/03/07 09:42:20;;;;;;;18.77;16.85;;;3.10;99.90;;;;;;4964072;28;20069;-73
2021/03/07 09:44:46;;;;;;;16.05;14.55;;;3.10;99.90;;;;;;4978841;28;20678;-74
2021/03/07 09:47:14;;;;;;;17.45;15.77;;;3.30;99.90;;;;;;4971143;28;20512;-74
2021/03/07 09:49:42;;;;;;;18.80;16.95;;;3.30;99.90;;;;;;4958684;28;20049;-76
2021/03/07 09:52:09;;;;;;;15.65;14.25;;;3.30;99.90;;;;;;4978650;28;20050;-75
2021/03/07 09:54:35;;;;;;;16.27;14.93;;;3.30;99.90;;;;;;4983745;28;20503;-74
2021/03/07 09:57:02;;;;;;;17.17;15.18;;;3.30;99.90;;;;;;4984199;28;20078;-74
2021/03/07 09:59:32;;;;;;;25.33;20.95;;;3.40;99.90;;;;;;5000598;28;20046;-73
2021/03/07 10:02:00;;;;;;;19.65;17.70;;;3.50;99.90;;;;;;4986056;28;20052;-73
2021/03/07 10:04:42;;;;;;;18.15;16.67;;;3.70;99.90;;;;;;4984380;28;20058;-74
2021/03/07 10:07:18;;;;;;;17.35;15.73;;;3.80;99.90;;;;;;4968284;28;20050;-73
2021/03/07 10:10:24;;;;;;;18.65;16.83;;;3.70;99.90;;;;;;4952531;28;20058;-74
2021/03/07 10:12:54;;;;;;;17.92;16.30;;;3.80;99.90;;;;;;4993902;28;20499;-74
2021/03/07 10:15:32;;;;;;;16.48;14.95;;;3.80;99.90;;;;;;4964375;28;20046;-74
2021/03/07 10:18:23;;;;;;;16.50;14.95;;;3.80;99.90;;;;;;5000663;28;20058;-74
2021/03/07 10:20:55;;;;;;;15.18;13.85;;;3.70;99.90;;;;;;4965127;28;20530;-74
2021/03/07 10:23:26;;;;;;;16.65;15.25;;;3.70;99.90;;;;;;4954024;28;20061;-75
2021/03/07 10:25:53;;;;;;;15.23;14.02;;;3.70;99.90;;;;;;4963105;28;20065;-74
2021/03/07 10:28:34;;;;;;;16.20;14.82;;;3.60;99.90;;;;;;4963241;28;20053;-74
2021/03/07 10:31:08;;;;;;;17.83;16.10;;;3.70;99.90;;;;;;4979561;28;20062;-74
2021/03/07 10:33:34;;;;;;;16.73;15.23;;;3.80;99.90;;;;;;4978246;28;20055;-75
2021/03/07 10:36:04;;;;;;;16.13;14.63;;;3.80;99.90;;;;;;4979339;28;20047;-74
2021/03/07 10:38:39;;;;;;;16.02;14.93;;;3.80;99.90;;;;;;4964998;28;20050;-75
2021/03/07 10:41:27;;;;;;;15.55;14.23;;;4.00;99.90;;;;;;4952102;28;20063;-74
2021/03/07 10:43:56;;;;;;;15.60;14.10;;;4.20;99.90;;;;;;4974671;28;20050;-74
2021/03/07 10:46:34;;;;;;;16.70;14.93;;;4.20;99.90;;;;;;4964494;28;20073;-74
2021/03/07 10:49:20;;;;;;;14.95;13.95;;;4.20;99.90;;;;;;4961064;28;20047;-74
2021/03/07 10:51:48;;;;;;;17.23;15.63;;;3.80;99.90;;;;;;4963407;28;20055;-75
2021/03/07 10:54:14;;;;;;;16.35;15.05;;;3.80;99.90;;;;;;4963798;28;20563;-75
2021/03/07 10:56:41;;;;;;;18.23;16.45;;;4.00;99.90;;;;;;4982595;28;20061;-73
2021/03/07 10:59:09;;;;;;;17.25;15.85;;;4.00;99.90;;;;;;5007102;28;20550;-76
2021/03/07 11:01:38;;;;;;;18.38;14.55;;;3.80;99.90;;;;;;4949502;28;20608;-74
2021/03/07 11:04:05;;;;;;;16.52;15.20;;;3.80;99.90;;;;;;4971198;28;20058;-74
2021/03/07 11:06:32;;;;;;;18.15;16.75;;;3.70;99.90;;;;;;4954848;28;20225;-73
2021/03/07 11:08:58;;;;;;;16.95;15.60;;;3.60;99.90;;;;;;4964714;28;20066;-76
2021/03/07 11:11:24;;;;;;;18.13;16.60;;;3.70;99.90;;;;;;4964695;28;20047;-73
2021/03/07 11:13:50;;;;;;;17.23;15.70;;;3.60;99.90;;;;;;4964212;28;20404;-73
2021/03/07 11:16:16;;;;;;;16.20;14.85;;;3.70;99.90;;;;;;4977816;28;20042;-73
2021/03/07 11:18:43;;;;;;;16.48;15.35;;;3.70;99.90;;;;;;4962910;28;20133;-73
2021/03/07 11:21:09;;;;;;;17.33;16.02;;;3.70;99.90;;;;;;4980634;28;20057;-74
2021/03/07 11:23:36;;;;;;;17.35;15.88;;;3.70;99.90;;;;;;4964245;28;20070;-74
2021/03/07 11:26:03;;;;;;;17.27;15.68;;;3.70;99.90;;;;;;4964482;28;20055;-74
2021/03/07 11:28:30;;;;;;;16.80;15.55;;;3.70;99.90;;;;;;4964066;28;20068;-74
2021/03/07 11:30:56;;;;;;;16.35;14.98;;;3.80;99.90;;;;;;4980410;28;20523;-74
2021/03/07 11:33:23;;;;;;;15.35;14.15;;;3.70;99.90;;;;;;4962837;28;20154;-74
2021/03/07 11:35:50;;;;;;;15.20;14.20;;;3.70;99.90;;;;;;4964537;28;20657;-74
2021/03/07 11:38:17;;;;;;;15.38;14.05;;;3.40;99.90;;;;;;4981365;28;20054;-74
2021/03/07 11:40:44;;;;;;;14.63;13.45;;;3.20;99.90;;;;;;4970644;28;20615;-74
2021/03/07 11:43:10;;;;;;;16.30;14.90;;;3.40;99.90;;;;;;4964153;28;20109;-75
2021/03/07 11:45:36;;;;;;;15.35;14.25;;;3.50;99.90;;;;;;4947248;28;20074;-73
2021/03/07 11:48:03;;;;;;;15.50;14.52;;;3.60;99.90;;;;;;4963622;28;20051;-74
2021/03/07 11:50:30;;;;;;;14.88;13.82;;;3.60;99.90;;;;;;4946977;28;20090;-75
2021/03/07 11:52:56;;;;;;;15.27;14.13;;;3.40;99.90;;;;;;4967876;28;20502;-75
2021/03/07 11:55:22;;;;;;;14.13;13.07;;;3.20;99.90;;;;;;4967867;28;20546;-74
2021/03/07 11:57:49;;;;;;;15.77;14.68;;;3.20;99.90;;;;;;4968350;28;20504;-75
2021/03/07 12:00:16;;;;;;;15.10;13.93;;;3.20;99.90;;;;;;4951758;28;20042;-75
2021/03/07 12:02:42;;;;;;;14.43;13.32;;;3.30;99.90;;;;;;4982965;28;20053;-74
2021/03/07 12:05:09;;;;;;;15.85;14.63;;;3.30;99.90;;;;;;4968509;28;20057;-74
2021/03/07 12:07:36;;;;;;;15.38;14.18;;;3.30;99.90;;;;;;4984038;28;20324;-75
2021/03/07 12:10:03;;;;;;;15.20;14.20;;;3.30;99.90;;;;;;4983688;28;20059;-74
2021/03/07 12:12:29;;;;;;;15.27;14.15;;;3.30;99.90;;;;;;4981681;28;20141;-75
2021/03/07 12:14:56;;;;;;;14.05;13.23;;;3.40;99.90;;;;;;4967033;28;20070;-75
2021/03/07 12:17:22;;;;;;;13.77;12.88;;;3.20;99.90;;;;;;4981312;28;20439;-73
2021/03/07 12:20:01;;;;;;;13.68;12.63;;;3.30;99.90;;;;;;4966993;28;20122;-74
2021/03/07 12:22:27;;;;;;;13.57;12.77;;;3.50;99.90;;;;;;4969878;28;20046;-75
2021/03/07 12:24:53;;;;;;;15.25;13.75;;;3.40;99.90;;;;;;4985423;28;20053;-74
2021/03/07 12:27:20;;;;;;;14.07;13.07;;;3.40;99.90;;;;;;5001953;28;20049;-75
2021/03/07 12:29:47;;;;;;;14.70;13.80;;;3.40;99.90;;;;;;4985540;28;20058;-75
2021/03/07 12:32:14;;;;;;;13.90;12.77;;;3.70;99.90;;;;;;4980942;28;20051;-73
2021/03/07 12:34:41;;;;;;;13.32;12.32;;;3.80;99.90;;;;;;4965755;28;20153;-74
2021/03/07 12:37:07;;;;;;;13.43;12.52;;;3.60;99.90;;;;;;4978021;28;20547;-74
2021/03/07 12:39:34;;;;;;;14.15;13.10;;;3.60;99.90;;;;;;4938383;28;20096;-74
2021/03/07 12:42:01;;;;;;;14.02;12.93;;;3.50;99.90;;;;;;4988134;28;20057;-74
2021/03/07 12:44:27;;;;;;;15.32;13.93;;;3.50;99.90;;;;;;4988312;28;20065;-74